Página principal
METAR-TAF:

METAR-TAF

Aeroportos :

Ouargla, Argélia

latitude: 31-55N, longitude: 005-24E, altura: 141 m

METAR: em falta

Hora: 14:10 (13:10 UTC)

Previsão

O boletim foi feito há 2 horas e 10 minutos, às 11:00 UTC
Previsão válida de 24 às 12 UTC a 24 às 21 UTC
Vento 10 kt de es-nordeste
Visibilidade 10 km ou mais
sem nuvens abaixo de 1500 metros e sem cumulonimbus
Probabilidade 30%
de 24 às 12 UTC a 24 às 15 UTC
Poucas nuvensa uma altura de 4000 ft, Cumulus congestus.

TAF: DAUU 241100Z 2412/2421 06010KT CAVOK PROB30 2412/2415 FEW040TCU

Observações e previsões do tempo de mais de 4000 aeroportos (mensagens METAR e TAF).

As estações disponíveis são os pontos amarelos e vermelhos sobre o mapa.

Mova o rato sobre o mapa para ver o nome da estação.

Depois clique no ponto para visualizar as observações e previsões meteorológicas.

Para alterar o mapa : clique nos botões verdes com uma cruz preta para aumentar o zoom; no botão verde com uma pitada de zoom; ou nas setas verdes para mapas adjacentes.


METAR-TAF: